sensor_id;sensor_type;location;lat;lon;timestamp;pressure;altitude;pressure_sealevel;temperature;humidity
65010;BME280;51556;50.002;22.014;2023-06-14T00:01:44;99102.72;;;14.35;81.29
65010;BME280;51556;50.002;22.014;2023-06-14T00:04:11;99103.98;;;14.38;81.49
65010;BME280;51556;50.002;22.014;2023-06-14T00:06:36;99103.64;;;14.43;81.27
65010;BME280;51556;50.002;22.014;2023-06-14T00:09:03;99099.13;;;14.45;81.16
65010;BME280;51556;50.002;22.014;2023-06-14T00:11:32;99104.17;;;14.47;81.32
65010;BME280;51556;50.002;22.014;2023-06-14T00:13:57;99105.21;;;14.47;80.95
65010;BME280;51556;50.002;22.014;2023-06-14T00:16:23;99104.55;;;14.46;81.10
65010;BME280;51556;50.002;22.014;2023-06-14T00:18:49;99096.88;;;14.47;81.14
65010;BME280;51556;50.002;22.014;2023-06-14T00:21:17;99093.74;;;14.50;81.07
65010;BME280;51556;50.002;22.014;2023-06-14T00:23:43;99093.05;;;14.46;80.74
65010;BME280;51556;50.002;22.014;2023-06-14T00:26:08;99091.84;;;14.36;81.07
65010;BME280;51556;50.002;22.014;2023-06-14T00:28:34;99093.92;;;14.34;81.33
65010;BME280;51556;50.002;22.014;2023-06-14T00:30:59;99095.00;;;14.33;81.47
65010;BME280;51556;50.002;22.014;2023-06-14T00:33:25;99095.79;;;14.32;81.26
65010;BME280;51556;50.002;22.014;2023-06-14T00:35:51;99091.56;;;14.31;81.34
65010;BME280;51556;50.002;22.014;2023-06-14T00:38:19;99092.05;;;14.24;81.40
65010;BME280;51556;50.002;22.014;2023-06-14T00:40:45;99094.59;;;14.23;81.74
65010;BME280;51556;50.002;22.014;2023-06-14T00:43:10;99094.77;;;14.19;81.52
65010;BME280;51556;50.002;22.014;2023-06-14T00:45:36;99094.63;;;14.18;81.47
65010;BME280;51556;50.002;22.014;2023-06-14T00:48:02;99091.60;;;14.18;81.86
65010;BME280;51556;50.002;22.014;2023-06-14T00:50:29;99092.38;;;14.17;81.52
65010;BME280;51556;50.002;22.014;2023-06-14T00:52:57;99092.56;;;14.12;81.78
65010;BME280;51556;50.002;22.014;2023-06-14T00:55:30;99088.00;;;14.08;81.99
65010;BME280;51556;50.002;22.014;2023-06-14T00:57:58;99085.48;;;14.10;81.93
65010;BME280;51556;50.002;22.014;2023-06-14T01:00:24;99077.70;;;14.09;82.01
65010;BME280;51556;50.002;22.014;2023-06-14T01:02:49;99074.48;;;14.10;82.30
65010;BME280;51556;50.002;22.014;2023-06-14T01:05:15;99069.80;;;14.07;81.99
65010;BME280;51556;50.002;22.014;2023-06-14T01:13:15;99059.10;;;13.89;82.37
65010;BME280;51556;50.002;22.014;2023-06-14T01:15:45;99053.54;;;13.83;82.67
65010;BME280;51556;50.002;22.014;2023-06-14T01:18:11;99056.52;;;13.83;82.87
65010;BME280;51556;50.002;22.014;2023-06-14T01:20:43;99057.16;;;13.85;82.66
65010;BME280;51556;50.002;22.014;2023-06-14T01:23:10;99056.43;;;13.81;82.66
65010;BME280;51556;50.002;22.014;2023-06-14T01:25:37;99060.27;;;13.82;82.78
65010;BME280;51556;50.002;22.014;2023-06-14T01:28:05;99054.18;;;13.80;82.48
65010;BME280;51556;50.002;22.014;2023-06-14T01:30:37;99059.52;;;13.75;82.79
65010;BME280;51556;50.002;22.014;2023-06-14T01:33:04;99055.48;;;13.79;83.06
65010;BME280;51556;50.002;22.014;2023-06-14T01:35:30;99056.52;;;13.83;83.04
65010;BME280;51556;50.002;22.014;2023-06-14T01:37:56;99061.60;;;13.88;83.11
65010;BME280;51556;50.002;22.014;2023-06-14T01:40:22;99058.30;;;13.87;82.88
65010;BME280;51556;50.002;22.014;2023-06-14T01:42:50;99055.44;;;13.84;82.68
65010;BME280;51556;50.002;22.014;2023-06-14T01:45:17;99048.63;;;13.78;82.72
65010;BME280;51556;50.002;22.014;2023-06-14T01:47:44;99043.45;;;13.78;82.91
65010;BME280;51556;50.002;22.014;2023-06-14T01:50:10;99039.36;;;13.83;83.33
65010;BME280;51556;50.002;22.014;2023-06-14T01:52:37;99042.10;;;13.85;82.76
65010;BME280;51556;50.002;22.014;2023-06-14T01:55:04;99041.02;;;13.90;82.55
65010;BME280;51556;50.002;22.014;2023-06-14T01:57:29;99037.91;;;13.88;82.82
65010;BME280;51556;50.002;22.014;2023-06-14T01:59:55;99028.56;;;13.91;82.78
65010;BME280;51556;50.002;22.014;2023-06-14T02:02:20;99026.77;;;13.92;82.68
65010;BME280;51556;50.002;22.014;2023-06-14T02:04:46;99031.16;;;13.92;82.58
65010;BME280;51556;50.002;22.014;2023-06-14T02:07:13;99034.17;;;13.92;82.68
65010;BME280;51556;50.002;22.014;2023-06-14T02:09:40;99041.53;;;13.86;82.52
65010;BME280;51556;50.002;22.014;2023-06-14T02:12:06;99034.51;;;13.81;82.69
65010;BME280;51556;50.002;22.014;2023-06-14T02:14:32;99027.44;;;13.81;83.06
65010;BME280;51556;50.002;22.014;2023-06-14T02:16:57;99025.37;;;13.79;82.85
65010;BME280;51556;50.002;22.014;2023-06-14T02:19:23;99023.77;;;13.72;82.95
65010;BME280;51556;50.002;22.014;2023-06-14T02:21:49;99029.15;;;13.62;83.34
65010;BME280;51556;50.002;22.014;2023-06-14T02:24:15;99032.99;;;13.55;83.45
65010;BME280;51556;50.002;22.014;2023-06-14T02:26:41;99039.26;;;13.49;83.64
65010;BME280;51556;50.002;22.014;2023-06-14T02:29:07;99042.77;;;13.45;84.03
65010;BME280;51556;50.002;22.014;2023-06-14T02:31:38;99046.74;;;13.48;84.30
65010;BME280;51556;50.002;22.014;2023-06-14T02:34:03;99046.71;;;13.48;83.90
65010;BME280;51556;50.002;22.014;2023-06-14T02:36:29;99054.05;;;13.50;84.12
65010;BME280;51556;50.002;22.014;2023-06-14T02:38:56;99049.39;;;13.48;84.08
65010;BME280;51556;50.002;22.014;2023-06-14T02:41:25;99049.32;;;13.45;84.16
65010;BME280;51556;50.002;22.014;2023-06-14T02:43:52;99050.65;;;13.43;84.32
65010;BME280;51556;50.002;22.014;2023-06-14T02:46:18;99051.60;;;13.42;84.42
65010;BME280;51556;50.002;22.014;2023-06-14T02:48:44;99051.63;;;13.41;84.14
65010;BME280;51556;50.002;22.014;2023-06-14T02:51:10;99053.46;;;13.39;84.58
65010;BME280;51556;50.002;22.014;2023-06-14T02:53:36;99055.34;;;13.41;84.43
65010;BME280;51556;50.002;22.014;2023-06-14T02:56:02;99050.41;;;13.40;84.49
65010;BME280;51556;50.002;22.014;2023-06-14T02:58:29;99050.23;;;13.44;84.45
65010;BME280;51556;50.002;22.014;2023-06-14T03:00:55;99052.27;;;13.47;84.57
65010;BME280;51556;50.002;22.014;2023-06-14T03:03:21;99053.94;;;13.49;84.53
65010;BME280;51556;50.002;22.014;2023-06-14T03:05:50;99057.11;;;13.53;84.35
65010;BME280;51556;50.002;22.014;2023-06-14T03:08:16;99054.46;;;13.53;84.23
65010;BME280;51556;50.002;22.014;2023-06-14T03:10:45;99052.51;;;13.54;84.33
65010;BME280;51556;50.002;22.014;2023-06-14T03:13:15;99053.80;;;13.52;84.60
65010;BME280;51556;50.002;22.014;2023-06-14T03:15:44;99054.71;;;13.47;84.24
65010;BME280;51556;50.002;22.014;2023-06-14T03:18:10;99058.34;;;13.45;84.52
65010;BME280;51556;50.002;22.014;2023-06-14T03:20:38;99061.43;;;13.47;84.67
65010;BME280;51556;50.002;22.014;2023-06-14T03:23:04;99062.59;;;13.49;84.76
65010;BME280;51556;50.002;22.014;2023-06-14T03:25:31;99064.63;;;13.47;84.59
65010;BME280;51556;50.002;22.014;2023-06-14T03:27:58;99062.66;;;13.48;84.76
65010;BME280;51556;50.002;22.014;2023-06-14T03:30:24;99065.05;;;13.50;84.85
65010;BME280;51556;50.002;22.014;2023-06-14T03:32:49;99063.89;;;13.56;85.19
65010;BME280;51556;50.002;22.014;2023-06-14T03:35:17;99067.42;;;13.64;85.05
65010;BME280;51556;50.002;22.014;2023-06-14T03:37:44;99065.17;;;13.68;84.95
65010;BME280;51556;50.002;22.014;2023-06-14T03:40:10;99059.98;;;13.69;84.70
65010;BME280;51556;50.002;22.014;2023-06-14T03:42:36;99058.21;;;13.73;84.75
65010;BME280;51556;50.002;22.014;2023-06-14T03:45:01;99058.02;;;13.73;85.01
65010;BME280;51556;50.002;22.014;2023-06-14T03:47:27;99063.14;;;13.74;84.89
65010;BME280;51556;50.002;22.014;2023-06-14T03:49:52;99059.52;;;13.76;84.89
65010;BME280;51556;50.002;22.014;2023-06-14T03:52:18;99063.55;;;13.76;85.05
65010;BME280;51556;50.002;22.014;2023-06-14T03:54:43;99064.11;;;13.75;84.71
65010;BME280;51556;50.002;22.014;2023-06-14T03:57:09;99063.70;;;13.77;84.78
65010;BME280;51556;50.002;22.014;2023-06-14T03:59:35;99072.63;;;13.79;84.46
65010;BME280;51556;50.002;22.014;2023-06-14T04:02:02;99077.48;;;13.77;84.78
65010;BME280;51556;50.002;22.014;2023-06-14T04:04:28;99084.58;;;13.77;84.54
65010;BME280;51556;50.002;22.014;2023-06-14T04:06:55;99086.95;;;13.79;84.71
65010;BME280;51556;50.002;22.014;2023-06-14T04:09:23;99091.94;;;13.82;84.69
65010;BME280;51556;50.002;22.014;2023-06-14T04:11:51;99093.89;;;13.82;84.69
65010;BME280;51556;50.002;22.014;2023-06-14T04:14:18;99095.94;;;13.80;84.62
65010;BME280;51556;50.002;22.014;2023-06-14T04:16:44;99096.89;;;13.83;84.84
65010;BME280;51556;50.002;22.014;2023-06-14T04:19:10;99100.63;;;13.86;84.70
65010;BME280;51556;50.002;22.014;2023-06-14T04:21:35;99099.56;;;13.90;84.88
65010;BME280;51556;50.002;22.014;2023-06-14T04:24:01;99100.22;;;13.91;84.71
65010;BME280;51556;50.002;22.014;2023-06-14T04:26:27;99096.60;;;13.89;84.88
65010;BME280;51556;50.002;22.014;2023-06-14T04:28:55;99096.98;;;13.93;84.64
65010;BME280;51556;50.002;22.014;2023-06-14T04:31:23;99096.20;;;13.94;84.77
65010;BME280;51556;50.002;22.014;2023-06-14T04:33:53;99092.48;;;13.94;84.65
65010;BME280;51556;50.002;22.014;2023-06-14T04:36:19;99089.17;;;13.97;84.58
65010;BME280;51556;50.002;22.014;2023-06-14T04:38:45;99092.30;;;14.03;84.93
65010;BME280;51556;50.002;22.014;2023-06-14T04:41:12;99088.67;;;14.09;84.78
65010;BME280;51556;50.002;22.014;2023-06-14T04:43:38;99089.92;;;14.12;84.60
65010;BME280;51556;50.002;22.014;2023-06-14T04:46:07;99090.97;;;14.13;84.40
65010;BME280;51556;50.002;22.014;2023-06-14T04:48:37;99091.45;;;14.10;84.60
65010;BME280;51556;50.002;22.014;2023-06-14T04:51:08;99093.55;;;14.18;84.76
65010;BME280;51556;50.002;22.014;2023-06-14T04:53:35;99098.61;;;14.20;84.05
65010;BME280;51556;50.002;22.014;2023-06-14T04:56:01;99098.73;;;14.10;84.04
65010;BME280;51556;50.002;22.014;2023-06-14T04:58:29;99096.95;;;14.06;84.21
65010;BME280;51556;50.002;22.014;2023-06-14T05:00:55;99098.31;;;14.11;84.46
65010;BME280;51556;50.002;22.014;2023-06-14T05:03:22;99099.25;;;14.14;84.22
65010;BME280;51556;50.002;22.014;2023-06-14T05:05:49;99096.29;;;14.12;84.28
65010;BME280;51556;50.002;22.014;2023-06-14T05:08:15;99096.55;;;14.11;83.95
65010;BME280;51556;50.002;22.014;2023-06-14T05:10:41;99101.07;;;14.00;84.04
65010;BME280;51556;50.002;22.014;2023-06-14T05:13:06;99105.56;;;13.95;84.40
65010;BME280;51556;50.002;22.014;2023-06-14T05:15:32;99105.92;;;13.94;84.39
65010;BME280;51556;50.002;22.014;2023-06-14T05:17:57;99106.70;;;13.93;84.48
65010;BME280;51556;50.002;22.014;2023-06-14T05:20:24;99106.80;;;13.95;84.92
65010;BME280;51556;50.002;22.014;2023-06-14T05:22:53;99108.78;;;13.98;85.07
65010;BME280;51556;50.002;22.014;2023-06-14T05:25:20;99108.23;;;14.03;85.00
65010;BME280;51556;50.002;22.014;2023-06-14T05:27:46;99106.56;;;14.09;84.68
65010;BME280;51556;50.002;22.014;2023-06-14T05:30:12;99104.61;;;14.09;84.45
65010;BME280;51556;50.002;22.014;2023-06-14T05:32:38;99101.88;;;14.11;84.61
65010;BME280;51556;50.002;22.014;2023-06-14T05:35:04;99103.19;;;14.09;84.42
65010;BME280;51556;50.002;22.014;2023-06-14T05:37:32;99101.97;;;14.09;84.60
65010;BME280;51556;50.002;22.014;2023-06-14T05:39:58;99102.83;;;14.17;84.81
65010;BME280;51556;50.002;22.014;2023-06-14T05:42:23;99102.02;;;14.23;84.60
65010;BME280;51556;50.002;22.014;2023-06-14T05:44:48;99107.14;;;14.27;84.80
65010;BME280;51556;50.002;22.014;2023-06-14T05:47:14;99105.45;;;14.33;84.55
65010;BME280;51556;50.002;22.014;2023-06-14T05:49:39;99105.67;;;14.36;84.60
65010;BME280;51556;50.002;22.014;2023-06-14T05:52:06;99110.61;;;14.41;84.86
65010;BME280;51556;50.002;22.014;2023-06-14T05:54:32;99108.84;;;14.48;84.71
65010;BME280;51556;50.002;22.014;2023-06-14T05:56:57;99113.97;;;14.53;84.04
65010;BME280;51556;50.002;22.014;2023-06-14T05:59:27;99113.27;;;14.49;84.03
65010;BME280;51556;50.002;22.014;2023-06-14T06:01:52;99117.53;;;14.49;84.22
65010;BME280;51556;50.002;22.014;2023-06-14T06:04:18;99121.39;;;14.49;84.45
65010;BME280;51556;50.002;22.014;2023-06-14T06:06:43;99125.20;;;14.51;84.60
65010;BME280;51556;50.002;22.014;2023-06-14T06:09:10;99126.41;;;14.56;84.40
65010;BME280;51556;50.002;22.014;2023-06-14T06:11:35;99127.34;;;14.63;84.54
65010;BME280;51556;50.002;22.014;2023-06-14T06:14:01;99129.73;;;14.73;84.24
65010;BME280;51556;50.002;22.014;2023-06-14T06:16:27;99128.79;;;14.70;83.71
65010;BME280;51556;50.002;22.014;2023-06-14T06:18:52;99129.95;;;14.67;83.79
65010;BME280;51556;50.002;22.014;2023-06-14T06:21:17;99129.34;;;14.65;83.88
65010;BME280;51556;50.002;22.014;2023-06-14T06:23:43;99130.88;;;14.67;84.00
65010;BME280;51556;50.002;22.014;2023-06-14T06:26:08;99134.54;;;14.72;84.31
65010;BME280;51556;50.002;22.014;2023-06-14T06:28:34;99135.02;;;14.81;84.05
65010;BME280;51556;50.002;22.014;2023-06-14T06:31:00;99133.07;;;14.88;84.22
65010;BME280;51556;50.002;22.014;2023-06-14T06:33:25;99132.71;;;14.95;84.17
65010;BME280;51556;50.002;22.014;2023-06-14T06:35:50;99136.13;;;14.98;83.98
65010;BME280;51556;50.002;22.014;2023-06-14T06:38:16;99136.80;;;15.03;83.96
65010;BME280;51556;50.002;22.014;2023-06-14T06:40:43;99136.73;;;15.08;83.89
65010;BME280;51556;50.002;22.014;2023-06-14T06:43:09;99138.71;;;15.12;83.82
65010;BME280;51556;50.002;22.014;2023-06-14T06:45:34;99141.98;;;15.17;83.85
65010;BME280;51556;50.002;22.014;2023-06-14T06:48:00;99141.75;;;15.19;83.03
65010;BME280;51556;50.002;22.014;2023-06-14T06:50:25;99144.90;;;15.12;82.85
65010;BME280;51556;50.002;22.014;2023-06-14T06:52:51;99143.89;;;15.07;83.23
65010;BME280;51556;50.002;22.014;2023-06-14T06:55:16;99144.85;;;15.05;83.46
65010;BME280;51556;50.002;22.014;2023-06-14T06:57:43;99142.19;;;15.05;83.64
65010;BME280;51556;50.002;22.014;2023-06-14T07:00:09;99134.27;;;15.12;83.61
65010;BME280;51556;50.002;22.014;2023-06-14T07:02:36;99140.73;;;15.17;83.31
65010;BME280;51556;50.002;22.014;2023-06-14T07:05:02;99141.35;;;15.20;83.23
65010;BME280;51556;50.002;22.014;2023-06-14T07:07:27;99140.77;;;15.21;83.02
65010;BME280;51556;50.002;22.014;2023-06-14T07:09:53;99143.77;;;15.21;82.85
65010;BME280;51556;50.002;22.014;2023-06-14T07:12:18;99144.27;;;15.21;83.03
65010;BME280;51556;50.002;22.014;2023-06-14T07:14:44;99144.82;;;15.21;83.05
65010;BME280;51556;50.002;22.014;2023-06-14T07:17:10;99143.80;;;15.23;83.13
65010;BME280;51556;50.002;22.014;2023-06-14T07:19:35;99149.52;;;15.26;83.04
65010;BME280;51556;50.002;22.014;2023-06-14T07:22:01;99153.00;;;15.27;82.88
65010;BME280;51556;50.002;22.014;2023-06-14T07:24:26;99157.13;;;15.30;82.69
65010;BME280;51556;50.002;22.014;2023-06-14T07:26:53;99157.65;;;15.34;82.46
65010;BME280;51556;50.002;22.014;2023-06-14T07:29:20;99156.49;;;15.36;82.40
65010;BME280;51556;50.002;22.014;2023-06-14T07:31:46;99157.06;;;15.39;82.21
65010;BME280;51556;50.002;22.014;2023-06-14T07:34:11;99158.86;;;15.46;82.04
65010;BME280;51556;50.002;22.014;2023-06-14T07:36:37;99161.57;;;15.52;82.32
65010;BME280;51556;50.002;22.014;2023-06-14T07:39:04;99165.77;;;15.58;81.99
65010;BME280;51556;50.002;22.014;2023-06-14T07:41:31;99166.90;;;15.60;82.06
65010;BME280;51556;50.002;22.014;2023-06-14T07:43:57;99169.34;;;15.64;82.20
65010;BME280;51556;50.002;22.014;2023-06-14T07:46:22;99168.50;;;15.66;82.11
65010;BME280;51556;50.002;22.014;2023-06-14T07:48:48;99169.73;;;15.67;81.73
65010;BME280;51556;50.002;22.014;2023-06-14T07:51:13;99169.68;;;15.68;81.78
65010;BME280;51556;50.002;22.014;2023-06-14T07:53:39;99167.31;;;15.69;81.76
65010;BME280;51556;50.002;22.014;2023-06-14T07:56:06;99167.73;;;15.75;82.09
65010;BME280;51556;50.002;22.014;2023-06-14T07:58:31;99165.96;;;15.79;81.95
65010;BME280;51556;50.002;22.014;2023-06-14T08:00:57;99167.46;;;15.77;81.93
65010;BME280;51556;50.002;22.014;2023-06-14T08:03:22;99167.45;;;15.77;81.98
65010;BME280;51556;50.002;22.014;2023-06-14T08:05:48;99167.95;;;15.78;82.10
65010;BME280;51556;50.002;22.014;2023-06-14T08:08:13;99164.24;;;15.81;82.11
65010;BME280;51556;50.002;22.014;2023-06-14T08:10:39;99165.88;;;15.81;82.04
65010;BME280;51556;50.002;22.014;2023-06-14T08:13:04;99163.19;;;15.77;81.95
65010;BME280;51556;50.002;22.014;2023-06-14T08:15:29;99168.08;;;15.75;82.27
65010;BME280;51556;50.002;22.014;2023-06-14T08:17:55;99161.88;;;15.75;82.06
65010;BME280;51556;50.002;22.014;2023-06-14T08:20:21;99161.81;;;15.73;82.26
65010;BME280;51556;50.002;22.014;2023-06-14T08:22:47;99165.65;;;15.71;82.30
65010;BME280;51556;50.002;22.014;2023-06-14T08:25:13;99162.17;;;15.73;82.58
65010;BME280;51556;50.002;22.014;2023-06-14T08:27:39;99162.27;;;15.74;82.41
65010;BME280;51556;50.002;22.014;2023-06-14T08:30:05;99162.66;;;15.77;82.66
65010;BME280;51556;50.002;22.014;2023-06-14T08:32:33;99160.41;;;15.83;82.65
65010;BME280;51556;50.002;22.014;2023-06-14T08:34:58;99159.22;;;15.82;81.98
65010;BME280;51556;50.002;22.014;2023-06-14T08:37:23;99157.85;;;15.78;82.11
65010;BME280;51556;50.002;22.014;2023-06-14T08:39:49;99157.55;;;15.80;82.69
65010;BME280;51556;50.002;22.014;2023-06-14T08:42:18;99164.48;;;15.87;82.66
65010;BME280;51556;50.002;22.014;2023-06-14T08:44:44;99163.35;;;15.88;82.35
65010;BME280;51556;50.002;22.014;2023-06-14T08:47:10;99164.70;;;15.86;82.30
65010;BME280;51556;50.002;22.014;2023-06-14T08:49:37;99162.66;;;15.88;82.35
65010;BME280;51556;50.002;22.014;2023-06-14T08:52:05;99165.34;;;15.91;82.48
65010;BME280;51556;50.002;22.014;2023-06-14T08:54:32;99165.77;;;15.96;82.46
65010;BME280;51556;50.002;22.014;2023-06-14T08:57:08;99170.05;;;15.99;82.33
65010;BME280;51556;50.002;22.014;2023-06-14T08:59:46;99163.55;;;16.04;82.71
65010;BME280;51556;50.002;22.014;2023-06-14T09:02:12;99160.89;;;16.12;82.53
65010;BME280;51556;50.002;22.014;2023-06-14T09:04:38;99162.55;;;16.21;82.67
65010;BME280;51556;50.002;22.014;2023-06-14T09:07:06;99161.16;;;16.34;82.71
65010;BME280;51556;50.002;22.014;2023-06-14T09:09:32;99161.02;;;16.47;82.71
65010;BME280;51556;50.002;22.014;2023-06-14T09:11:57;99158.86;;;16.64;83.16
65010;BME280;51556;50.002;22.014;2023-06-14T09:14:26;99157.14;;;16.87;82.89
65010;BME280;51556;50.002;22.014;2023-06-14T09:16:54;99156.86;;;17.04;82.53
65010;BME280;51556;50.002;22.014;2023-06-14T09:19:24;99156.89;;;17.23;82.42
65010;BME280;51556;50.002;22.014;2023-06-14T09:21:57;99154.69;;;17.43;81.68
65010;BME280;51556;50.002;22.014;2023-06-14T09:24:26;99154.42;;;17.57;80.97
65010;BME280;51556;50.002;22.014;2023-06-14T09:26:52;99157.01;;;17.65;79.08
65010;BME280;51556;50.002;22.014;2023-06-14T09:29:18;99154.58;;;17.64;78.47
65010;BME280;51556;50.002;22.014;2023-06-14T09:31:46;99151.82;;;17.66;78.34
65010;BME280;51556;50.002;22.014;2023-06-14T09:34:12;99150.98;;;17.65;77.49
65010;BME280;51556;50.002;22.014;2023-06-14T09:36:39;99148.79;;;17.62;77.76
65010;BME280;51556;50.002;22.014;2023-06-14T09:39:05;99150.70;;;17.63;77.93
65010;BME280;51556;50.002;22.014;2023-06-14T09:41:36;99153.80;;;17.65;78.01
65010;BME280;51556;50.002;22.014;2023-06-14T09:44:05;99160.08;;;17.71;78.03
65010;BME280;51556;50.002;22.014;2023-06-14T09:46:32;99160.61;;;17.77;77.55
65010;BME280;51556;50.002;22.014;2023-06-14T09:48:59;99154.42;;;17.82;77.45
65010;BME280;51556;50.002;22.014;2023-06-14T09:51:25;99154.55;;;17.98;77.32
65010;BME280;51556;50.002;22.014;2023-06-14T09:53:53;99155.92;;;18.11;77.05
65010;BME280;51556;50.002;22.014;2023-06-14T09:56:31;99154.85;;;18.25;77.38
65010;BME280;51556;50.002;22.014;2023-06-14T09:59:04;99151.55;;;18.45;77.36
65010;BME280;51556;50.002;22.014;2023-06-14T10:01:31;99154.66;;;18.64;75.88
65010;BME280;51556;50.002;22.014;2023-06-14T10:04:04;99153.86;;;18.75;75.25
65010;BME280;51556;50.002;22.014;2023-06-14T10:06:31;99152.88;;;18.82;74.32
65010;BME280;51556;50.002;22.014;2023-06-14T10:08:58;99151.17;;;18.80;72.71
65010;BME280;51556;50.002;22.014;2023-06-14T10:11:27;99151.14;;;18.66;71.93
65010;BME280;51556;50.002;22.014;2023-06-14T10:13:54;99147.45;;;18.53;72.29
65010;BME280;51556;50.002;22.014;2023-06-14T10:23:50;99145.22;;;18.43;73.41
65010;BME280;51556;50.002;22.014;2023-06-14T10:26:20;99146.20;;;18.48;73.30
65010;BME280;51556;50.002;22.014;2023-06-14T10:29:07;99148.07;;;18.47;72.67
65010;BME280;51556;50.002;22.014;2023-06-14T10:34:09;99149.62;;;18.36;72.60
65010;BME280;51556;50.002;22.014;2023-06-14T10:36:35;99147.67;;;18.38;73.20
65010;BME280;51556;50.002;22.014;2023-06-14T10:39:17;99145.80;;;18.43;72.80
65010;BME280;51556;50.002;22.014;2023-06-14T10:41:52;99146.84;;;18.43;72.35
65010;BME280;51556;50.002;22.014;2023-06-14T10:46:47;99147.60;;;18.57;72.36
65010;BME280;51556;50.002;22.014;2023-06-14T10:49:16;99146.52;;;18.63;72.12
65010;BME280;51556;50.002;22.014;2023-06-14T10:51:46;99146.66;;;18.72;72.12
65010;BME280;51556;50.002;22.014;2023-06-14T10:54:20;99149.65;;;18.87;71.19
65010;BME280;51556;50.002;22.014;2023-06-14T10:56:46;99148.86;;;19.02;71.05
65010;BME280;51556;50.002;22.014;2023-06-14T10:59:14;99147.28;;;19.19;71.75
65010;BME280;51556;50.002;22.014;2023-06-14T11:02:02;99148.30;;;19.36;70.44
65010;BME280;51556;50.002;22.014;2023-06-14T11:04:51;99146.90;;;19.53;70.04
65010;BME280;51556;50.002;22.014;2023-06-14T11:10:31;99142.02;;;19.75;68.77
65010;BME280;51556;50.002;22.014;2023-06-14T11:13:01;99138.04;;;19.97;68.59
65010;BME280;51556;50.002;22.014;2023-06-14T11:15:32;99141.79;;;20.05;67.31
65010;BME280;51556;50.002;22.014;2023-06-14T11:18:01;99139.47;;;20.13;67.69
65010;BME280;51556;50.002;22.014;2023-06-14T11:20:29;99139.11;;;20.10;66.97
65010;BME280;51556;50.002;22.014;2023-06-14T11:22:55;99139.56;;;20.24;68.02
65010;BME280;51556;50.002;22.014;2023-06-14T11:25:20;99136.30;;;20.53;67.87
65010;BME280;51556;50.002;22.014;2023-06-14T11:27:46;99136.17;;;20.76;66.49
65010;BME280;51556;50.002;22.014;2023-06-14T11:30:13;99137.63;;;20.78;65.73
65010;BME280;51556;50.002;22.014;2023-06-14T11:32:39;99137.74;;;20.79;63.81
65010;BME280;51556;50.002;22.014;2023-06-14T11:35:05;99133.13;;;20.68;64.44
65010;BME280;51556;50.002;22.014;2023-06-14T11:37:31;99136.15;;;20.63;64.05
65010;BME280;51556;50.002;22.014;2023-06-14T11:40:01;99133.14;;;20.55;63.76
65010;BME280;51556;50.002;22.014;2023-06-14T11:42:29;99133.57;;;20.57;65.01
65010;BME280;51556;50.002;22.014;2023-06-14T11:44:55;99129.60;;;20.57;64.91
65010;BME280;51556;50.002;22.014;2023-06-14T11:47:24;99130.63;;;20.58;64.41
65010;BME280;51556;50.002;22.014;2023-06-14T11:49:49;99132.42;;;20.55;64.42
65010;BME280;51556;50.002;22.014;2023-06-14T11:52:15;99134.11;;;20.49;64.09
65010;BME280;51556;50.002;22.014;2023-06-14T11:54:41;99136.96;;;20.44;63.99
65010;BME280;51556;50.002;22.014;2023-06-14T11:57:07;99138.11;;;20.41;64.09
65010;BME280;51556;50.002;22.014;2023-06-14T11:59:40;99141.88;;;20.41;64.03
65010;BME280;51556;50.002;22.014;2023-06-14T12:02:06;99136.64;;;20.39;63.71
65010;BME280;51556;50.002;22.014;2023-06-14T12:04:35;99137.89;;;20.36;63.63
65010;BME280;51556;50.002;22.014;2023-06-14T12:07:14;99135.08;;;20.38;63.32
65010;BME280;51556;50.002;22.014;2023-06-14T12:12:20;99128.65;;;20.41;63.12
65010;BME280;51556;50.002;22.014;2023-06-14T12:14:47;99125.66;;;20.42;64.32
65010;BME280;51556;50.002;22.014;2023-06-14T12:17:12;99122.35;;;20.41;63.95
65010;BME280;51556;50.002;22.014;2023-06-14T12:19:45;99118.13;;;20.43;64.42
65010;BME280;51556;50.002;22.014;2023-06-14T12:22:14;99124.20;;;20.40;63.97
65010;BME280;51556;50.002;22.014;2023-06-14T12:24:44;99124.57;;;20.37;65.04
65010;BME280;51556;50.002;22.014;2023-06-14T12:27:10;99122.55;;;20.41;64.63
65010;BME280;51556;50.002;22.014;2023-06-14T12:29:43;99118.73;;;20.44;64.92
65010;BME280;51556;50.002;22.014;2023-06-14T12:32:09;99112.73;;;20.60;65.40
65010;BME280;51556;50.002;22.014;2023-06-14T12:34:34;99114.70;;;20.81;64.95
65010;BME280;51556;50.002;22.014;2023-06-14T12:37:01;99113.80;;;21.06;63.90
65010;BME280;51556;50.002;22.014;2023-06-14T12:39:26;99113.25;;;21.25;63.90
65010;BME280;51556;50.002;22.014;2023-06-14T12:41:53;99109.89;;;21.47;63.55
65010;BME280;51556;50.002;22.014;2023-06-14T12:44:19;99105.16;;;21.74;62.87
65010;BME280;51556;50.002;22.014;2023-06-14T12:46:55;99105.27;;;22.17;61.05
65010;BME280;51556;50.002;22.014;2023-06-14T12:49:20;99102.20;;;22.72;59.81
65010;BME280;51556;50.002;22.014;2023-06-14T12:51:46;99101.14;;;23.21;57.51
65010;BME280;51556;50.002;22.014;2023-06-14T12:54:11;99101.31;;;23.48;57.38
65010;BME280;51556;50.002;22.014;2023-06-14T12:56:37;99102.49;;;23.91;56.61
65010;BME280;51556;50.002;22.014;2023-06-14T12:59:14;99099.06;;;24.42;56.75
65010;BME280;51556;50.002;22.014;2023-06-14T13:01:40;99098.05;;;24.86;51.79
65010;BME280;51556;50.002;22.014;2023-06-14T13:04:23;99104.91;;;25.27;52.06
65010;BME280;51556;50.002;22.014;2023-06-14T13:10:08;99101.27;;;26.11;47.04
65010;BME280;51556;50.002;22.014;2023-06-14T13:15:30;99103.00;;;25.57;47.29
65010;BME280;51556;50.002;22.014;2023-06-14T13:17:55;99101.16;;;25.69;47.39
65010;BME280;51556;50.002;22.014;2023-06-14T13:20:21;99095.70;;;25.96;47.79